sensor_id;sensor_type;location;lat;lon;timestamp;pressure;altitude;pressure_sealevel;temperature;humidity
13767;BME280;47980;48.794;9.176;2023-04-25T00:00:45;97651.47;;;10.42;74.83
13767;BME280;47980;48.794;9.176;2023-04-25T00:03:17;97648.50;;;10.43;72.17
13767;BME280;47980;48.794;9.176;2023-04-25T00:05:48;97640.31;;;10.11;73.60
13767;BME280;47980;48.794;9.176;2023-04-25T00:08:21;97642.09;;;10.20;76.54
13767;BME280;47980;48.794;9.176;2023-04-25T00:10:53;97639.69;;;10.27;74.35
13767;BME280;47980;48.794;9.176;2023-04-25T00:13:24;97646.31;;;10.33;75.44
13767;BME280;47980;48.794;9.176;2023-04-25T00:15:59;97641.66;;;10.30;75.57
13767;BME280;47980;48.794;9.176;2023-04-25T00:18:30;97640.31;;;10.24;76.26
13767;BME280;47980;48.794;9.176;2023-04-25T00:21:03;97641.56;;;10.26;76.60
13767;BME280;47980;48.794;9.176;2023-04-25T00:23:36;97634.25;;;10.23;77.06
13767;BME280;47980;48.794;9.176;2023-04-25T00:26:09;97636.13;;;10.23;75.84
13767;BME280;47980;48.794;9.176;2023-04-25T00:28:40;97636.56;;;10.12;76.49
13767;BME280;47980;48.794;9.176;2023-04-25T00:31:13;97638.34;;;10.08;77.03
13767;BME280;47980;48.794;9.176;2023-04-25T00:33:45;97637.91;;;10.06;76.29
13767;BME280;47980;48.794;9.176;2023-04-25T00:36:17;97636.56;;;10.12;76.29
13767;BME280;47980;48.794;9.176;2023-04-25T00:38:49;97629.97;;;10.06;75.15
13767;BME280;47980;48.794;9.176;2023-04-25T00:41:21;97628.84;;;10.07;77.25
13767;BME280;47980;48.794;9.176;2023-04-25T00:43:54;97628.63;;;10.12;77.14
13767;BME280;47980;48.794;9.176;2023-04-25T00:46:28;97632.84;;;10.13;79.75
13767;BME280;47980;48.794;9.176;2023-04-25T00:49:00;97616.94;;;10.13;79.27
13767;BME280;47980;48.794;9.176;2023-04-25T00:51:32;97623.09;;;10.18;77.46
13767;BME280;47980;48.794;9.176;2023-04-25T00:54:04;97619.22;;;10.15;79.73
13767;BME280;47980;48.794;9.176;2023-04-25T00:56:36;97617.13;;;10.08;78.42
13767;BME280;47980;48.794;9.176;2023-04-25T00:59:09;97620.25;;;10.10;79.74
13767;BME280;47980;48.794;9.176;2023-04-25T01:01:43;97618.81;;;10.13;77.69
13767;BME280;47980;48.794;9.176;2023-04-25T01:04:14;97615.38;;;10.12;77.00
13767;BME280;47980;48.794;9.176;2023-04-25T01:06:46;97614.50;;;10.08;78.85
13767;BME280;47980;48.794;9.176;2023-04-25T01:09:18;97614.16;;;10.10;79.45
13767;BME280;47980;48.794;9.176;2023-04-25T01:11:50;97609.28;;;10.12;76.71
13767;BME280;47980;48.794;9.176;2023-04-25T01:14:22;97612.28;;;10.10;79.24
13767;BME280;47980;48.794;9.176;2023-04-25T01:16:55;97598.28;;;10.10;78.89
13767;BME280;47980;48.794;9.176;2023-04-25T01:19:27;97605.66;;;10.04;76.44
13767;BME280;47980;48.794;9.176;2023-04-25T01:22:00;97606.13;;;10.06;74.98
13767;BME280;47980;48.794;9.176;2023-04-25T01:24:32;97604.66;;;10.21;74.64
13767;BME280;47980;48.794;9.176;2023-04-25T01:27:04;97593.53;;;10.03;75.02
13767;BME280;47980;48.794;9.176;2023-04-25T01:29:36;97596.50;;;10.14;75.69
13767;BME280;47980;48.794;9.176;2023-04-25T01:32:07;97590.31;;;9.98;77.63
13767;BME280;47980;48.794;9.176;2023-04-25T01:34:39;97586.47;;;9.83;77.00
13767;BME280;47980;48.794;9.176;2023-04-25T01:37:12;97589.44;;;9.94;80.04
13767;BME280;47980;48.794;9.176;2023-04-25T01:39:44;97601.03;;;9.89;78.98
13767;BME280;47980;48.794;9.176;2023-04-25T01:42:15;97599.50;;;9.88;79.28
13767;BME280;47980;48.794;9.176;2023-04-25T01:44:49;97602.59;;;9.78;80.40
13767;BME280;47980;48.794;9.176;2023-04-25T01:47:21;97599.81;;;9.86;79.66
13767;BME280;47980;48.794;9.176;2023-04-25T01:49:52;97598.94;;;9.95;79.76
13767;BME280;47980;48.794;9.176;2023-04-25T01:52:25;97593.09;;;9.89;79.31
13767;BME280;47980;48.794;9.176;2023-04-25T01:54:57;97592.97;;;9.85;78.22
13767;BME280;47980;48.794;9.176;2023-04-25T01:57:30;97588.81;;;9.84;77.95
13767;BME280;47980;48.794;9.176;2023-04-25T02:00:04;97588.81;;;9.84;78.20
13767;BME280;47980;48.794;9.176;2023-04-25T02:02:36;97583.81;;;9.83;77.36
13767;BME280;47980;48.794;9.176;2023-04-25T02:05:08;97585.47;;;9.87;77.39
13767;BME280;47980;48.794;9.176;2023-04-25T02:07:41;97585.28;;;9.80;77.79
13767;BME280;47980;48.794;9.176;2023-04-25T02:10:13;97593.19;;;9.93;77.01
13767;BME280;47980;48.794;9.176;2023-04-25T02:12:45;97589.78;;;9.80;78.03
13767;BME280;47980;48.794;9.176;2023-04-25T02:15:16;97590.09;;;9.91;77.27
13767;BME280;47980;48.794;9.176;2023-04-25T02:17:48;97594.75;;;9.81;76.56
13767;BME280;47980;48.794;9.176;2023-04-25T02:20:20;97596.16;;;9.91;75.60
13767;BME280;47980;48.794;9.176;2023-04-25T02:22:53;97591.00;;;9.70;77.71
13767;BME280;47980;48.794;9.176;2023-04-25T02:25:25;97583.38;;;9.69;77.84
13767;BME280;47980;48.794;9.176;2023-04-25T02:27:56;97588.69;;;9.81;80.17
13767;BME280;47980;48.794;9.176;2023-04-25T02:30:28;97580.28;;;9.79;77.15
13767;BME280;47980;48.794;9.176;2023-04-25T02:32:59;97581.59;;;9.73;78.04
13767;BME280;47980;48.794;9.176;2023-04-25T02:35:31;97581.50;;;9.81;79.76
13767;BME280;47980;48.794;9.176;2023-04-25T02:38:04;97576.41;;;9.76;81.19
13767;BME280;47980;48.794;9.176;2023-04-25T02:40:35;97577.97;;;9.77;80.35
13767;BME280;47980;48.794;9.176;2023-04-25T02:43:07;97573.56;;;9.57;79.49
13767;BME280;47980;48.794;9.176;2023-04-25T02:45:39;97570.69;;;9.62;81.41
13767;BME280;47980;48.794;9.176;2023-04-25T02:48:10;97565.97;;;9.55;79.52
13767;BME280;47980;48.794;9.176;2023-04-25T02:50:42;97566.06;;;9.71;81.69
13767;BME280;47980;48.794;9.176;2023-04-25T02:53:15;97569.69;;;9.79;80.38
13767;BME280;47980;48.794;9.176;2023-04-25T02:55:46;97570.81;;;9.78;80.36
13767;BME280;47980;48.794;9.176;2023-04-25T02:58:18;97565.63;;;9.81;79.50
13767;BME280;47980;48.794;9.176;2023-04-25T03:00:49;97570.47;;;9.79;78.44
13767;BME280;47980;48.794;9.176;2023-04-25T03:03:21;97568.16;;;9.65;78.33
13767;BME280;47980;48.794;9.176;2023-04-25T03:05:52;97577.00;;;9.70;78.83
13767;BME280;47980;48.794;9.176;2023-04-25T03:08:25;97577.66;;;9.67;77.90
13767;BME280;47980;48.794;9.176;2023-04-25T03:11:02;97569.91;;;9.61;77.43
13767;BME280;47980;48.794;9.176;2023-04-25T03:13:34;97573.00;;;9.63;77.46
13767;BME280;47980;48.794;9.176;2023-04-25T03:16:05;97572.66;;;9.65;80.02
13767;BME280;47980;48.794;9.176;2023-04-25T03:18:37;97565.94;;;9.68;79.63
13767;BME280;47980;48.794;9.176;2023-04-25T03:21:08;97561.53;;;9.59;80.31
13767;BME280;47980;48.794;9.176;2023-04-25T03:23:41;97559.44;;;9.65;78.12
13767;BME280;47980;48.794;9.176;2023-04-25T03:26:13;97551.94;;;9.67;79.35
13767;BME280;47980;48.794;9.176;2023-04-25T03:28:44;97558.34;;;9.66;79.85
13767;BME280;47980;48.794;9.176;2023-04-25T03:31:16;97555.25;;;9.64;80.02
13767;BME280;47980;48.794;9.176;2023-04-25T03:33:47;97554.47;;;9.51;81.42
13767;BME280;47980;48.794;9.176;2023-04-25T03:36:19;97558.22;;;9.50;81.49
13767;BME280;47980;48.794;9.176;2023-04-25T03:38:51;97558.97;;;9.38;80.28
13767;BME280;47980;48.794;9.176;2023-04-25T03:41:23;97556.22;;;9.47;80.75
13767;BME280;47980;48.794;9.176;2023-04-25T03:43:55;97559.56;;;9.44;78.55
13767;BME280;47980;48.794;9.176;2023-04-25T03:46:26;97565.03;;;9.51;81.76
13767;BME280;47980;48.794;9.176;2023-04-25T03:48:58;97565.03;;;9.51;80.74
13767;BME280;47980;48.794;9.176;2023-04-25T03:51:30;97564.97;;;9.48;82.75
13767;BME280;47980;48.794;9.176;2023-04-25T03:54:03;97555.13;;;9.60;83.36
13767;BME280;47980;48.794;9.176;2023-04-25T03:56:35;97562.75;;;9.50;82.16
13767;BME280;47980;48.794;9.176;2023-04-25T03:59:06;97555.91;;;9.49;82.23
13767;BME280;47980;48.794;9.176;2023-04-25T04:01:38;97550.69;;;9.40;84.12
13767;BME280;47980;48.794;9.176;2023-04-25T04:04:10;97551.81;;;9.39;83.19
13767;BME280;47980;48.794;9.176;2023-04-25T04:06:41;97552.16;;;9.37;83.01
13767;BME280;47980;48.794;9.176;2023-04-25T04:09:14;97554.56;;;9.30;83.47
13767;BME280;47980;48.794;9.176;2023-04-25T04:11:46;97554.56;;;9.30;82.37
13767;BME280;47980;48.794;9.176;2023-04-25T04:14:18;97556.22;;;9.35;84.38
13767;BME280;47980;48.794;9.176;2023-04-25T04:16:50;97558.88;;;9.35;85.02
13767;BME280;47980;48.794;9.176;2023-04-25T04:19:22;97564.81;;;9.32;85.83
13767;BME280;47980;48.794;9.176;2023-04-25T04:21:53;97556.34;;;9.26;84.95
13767;BME280;47980;48.794;9.176;2023-04-25T04:24:26;97558.97;;;9.26;83.51
13767;BME280;47980;48.794;9.176;2023-04-25T04:26:58;97561.16;;;9.24;82.54
13767;BME280;47980;48.794;9.176;2023-04-25T04:29:30;97559.72;;;9.14;82.77
13767;BME280;47980;48.794;9.176;2023-04-25T04:32:01;97556.88;;;9.20;81.86
13767;BME280;47980;48.794;9.176;2023-04-25T04:34:33;97550.94;;;9.23;83.29
13767;BME280;47980;48.794;9.176;2023-04-25T04:37:05;97570.88;;;9.20;82.04
13767;BME280;47980;48.794;9.176;2023-04-25T04:39:38;97574.28;;;9.33;81.79
13767;BME280;47980;48.794;9.176;2023-04-25T04:42:10;97574.88;;;9.38;82.03
13767;BME280;47980;48.794;9.176;2023-04-25T04:44:41;97578.97;;;9.48;82.02
13767;BME280;47980;48.794;9.176;2023-04-25T04:47:14;97577.75;;;9.58;80.83
13767;BME280;47980;48.794;9.176;2023-04-25T04:49:46;97576.22;;;9.57;79.09
13767;BME280;47980;48.794;9.176;2023-04-25T04:52:18;97579.72;;;9.61;79.39
13767;BME280;47980;48.794;9.176;2023-04-25T04:54:51;97584.25;;;9.73;80.22
13767;BME280;47980;48.794;9.176;2023-04-25T04:57:23;97583.38;;;9.69;80.00
13767;BME280;47980;48.794;9.176;2023-04-25T04:59:55;97592.00;;;9.78;79.23
13767;BME280;47980;48.794;9.176;2023-04-25T05:02:26;97596.63;;;9.81;79.58
13767;BME280;47980;48.794;9.176;2023-04-25T05:04:58;97598.94;;;9.70;78.53
13767;BME280;47980;48.794;9.176;2023-04-25T05:07:29;97595.72;;;9.64;78.72
13767;BME280;47980;48.794;9.176;2023-04-25T05:10:03;97597.06;;;9.71;78.91
13767;BME280;47980;48.794;9.176;2023-04-25T05:12:35;97592.19;;;9.73;77.57
13767;BME280;47980;48.794;9.176;2023-04-25T05:15:07;97600.59;;;9.87;77.85
13767;BME280;47980;48.794;9.176;2023-04-25T05:17:39;97593.06;;;10.01;76.13
13767;BME280;47980;48.794;9.176;2023-04-25T05:20:10;97600.50;;;9.96;77.19
13767;BME280;47980;48.794;9.176;2023-04-25T05:22:42;97599.91;;;10.15;76.45
13767;BME280;47980;48.794;9.176;2023-04-25T05:25:15;97600.78;;;10.19;75.45
13767;BME280;47980;48.794;9.176;2023-04-25T05:27:46;97605.78;;;10.32;75.38
13767;BME280;47980;48.794;9.176;2023-04-25T05:30:18;97597.59;;;10.01;74.19
13767;BME280;47980;48.794;9.176;2023-04-25T05:32:49;97608.63;;;10.15;75.32
13767;BME280;47980;48.794;9.176;2023-04-25T05:35:21;97608.22;;;10.01;74.37
13767;BME280;47980;48.794;9.176;2023-04-25T05:37:52;97604.91;;;9.79;74.48
13767;BME280;47980;48.794;9.176;2023-04-25T05:40:25;97610.63;;;9.94;75.97
13767;BME280;47980;48.794;9.176;2023-04-25T05:42:57;97607.34;;;9.84;75.79
13767;BME280;47980;48.794;9.176;2023-04-25T05:45:28;97605.13;;;9.74;77.78
13767;BME280;47980;48.794;9.176;2023-04-25T05:48:00;97609.63;;;10.23;77.13
13767;BME280;47980;48.794;9.176;2023-04-25T05:50:31;97605.88;;;10.36;75.44
13767;BME280;47980;48.794;9.176;2023-04-25T05:53:03;97601.19;;;10.45;76.41
13767;BME280;47980;48.794;9.176;2023-04-25T05:55:37;97600.09;;;10.46;72.72
13767;BME280;47980;48.794;9.176;2023-04-25T05:58:08;97602.72;;;10.58;74.30
13767;BME280;47980;48.794;9.176;2023-04-25T06:00:40;97603.19;;;10.48;71.65
13767;BME280;47980;48.794;9.176;2023-04-25T06:03:12;97608.84;;;10.47;73.79
13767;BME280;47980;48.794;9.176;2023-04-25T06:05:44;97612.25;;;10.47;72.54
13767;BME280;47980;48.794;9.176;2023-04-25T06:08:16;97617.50;;;10.59;71.31
13767;BME280;47980;48.794;9.176;2023-04-25T06:10:49;97615.63;;;10.60;71.48
13767;BME280;47980;48.794;9.176;2023-04-25T06:13:20;97613.31;;;10.58;69.59
13767;BME280;47980;48.794;9.176;2023-04-25T06:15:52;97616.28;;;10.69;70.03
13767;BME280;47980;48.794;9.176;2023-04-25T06:18:24;97612.19;;;10.72;70.39
13767;BME280;47980;48.794;9.176;2023-04-25T06:20:55;97611.75;;;10.98;71.20
13767;BME280;47980;48.794;9.176;2023-04-25T06:26:32;97600.19;;;11.06;69.90
13767;BME280;47980;48.794;9.176;2023-04-25T06:29:04;97601.25;;;11.17;68.34
13767;BME280;47980;48.794;9.176;2023-04-25T06:31:36;97602.53;;;10.79;69.67
13767;BME280;47980;48.794;9.176;2023-04-25T06:34:07;97601.00;;;10.78;70.04
13767;BME280;47980;48.794;9.176;2023-04-25T06:36:39;97591.56;;;11.09;67.04
13767;BME280;47980;48.794;9.176;2023-04-25T06:39:11;97589.38;;;11.43;66.15
13767;BME280;47980;48.794;9.176;2023-04-25T06:41:44;97596.19;;;11.12;67.15
13767;BME280;47980;48.794;9.176;2023-04-25T06:44:16;97606.44;;;10.98;67.51
13767;BME280;47980;48.794;9.176;2023-04-25T06:46:47;97601.88;;;11.58;66.58
13767;BME280;47980;48.794;9.176;2023-04-25T06:49:19;97595.19;;;11.80;67.11
13767;BME280;47980;48.794;9.176;2023-04-25T06:51:50;97604.63;;;11.62;66.87
13767;BME280;47980;48.794;9.176;2023-04-25T06:54:22;97605.47;;;11.81;64.10
13767;BME280;47980;48.794;9.176;2023-04-25T06:56:56;97605.38;;;11.46;67.64
13767;BME280;47980;48.794;9.176;2023-04-25T06:59:28;97604.00;;;11.21;68.44
13767;BME280;47980;48.794;9.176;2023-04-25T07:01:59;97607.84;;;10.79;68.71
13767;BME280;47980;48.794;9.176;2023-04-25T07:04:31;97612.78;;;10.93;68.99
13767;BME280;47980;48.794;9.176;2023-04-25T07:07:02;97606.91;;;10.88;69.85
13767;BME280;47980;48.794;9.176;2023-04-25T07:09:34;97609.59;;;11.03;68.29
13767;BME280;47980;48.794;9.176;2023-04-25T07:12:07;97603.53;;;11.03;70.07
13767;BME280;47980;48.794;9.176;2023-04-25T07:14:38;97608.03;;;10.87;72.16
13767;BME280;47980;48.794;9.176;2023-04-25T07:17:10;97612.53;;;11.14;70.39
13767;BME280;47980;48.794;9.176;2023-04-25T07:19:42;97613.06;;;10.76;71.62
13767;BME280;47980;48.794;9.176;2023-04-25T07:22:13;97615.44;;;10.93;73.27
13767;BME280;47980;48.794;9.176;2023-04-25T07:24:45;97609.78;;;10.95;73.33
13767;BME280;47980;48.794;9.176;2023-04-25T07:27:20;97617.72;;;11.23;73.03
13767;BME280;47980;48.794;9.176;2023-04-25T07:29:51;97614.47;;;11.29;72.71
13767;BME280;47980;48.794;9.176;2023-04-25T07:32:25;97620.84;;;10.97;72.24
13767;BME280;47980;48.794;9.176;2023-04-25T07:34:56;97617.38;;;10.96;71.55
13767;BME280;47980;48.794;9.176;2023-04-25T07:37:28;97620.72;;;10.53;72.35
13767;BME280;47980;48.794;9.176;2023-04-25T07:39:59;97628.47;;;10.58;73.82
13767;BME280;47980;48.794;9.176;2023-04-25T07:42:32;97629.38;;;10.78;75.44
13767;BME280;47980;48.794;9.176;2023-04-25T07:45:04;97634.19;;;10.60;75.46
13767;BME280;47980;48.794;9.176;2023-04-25T07:47:36;97635.09;;;10.64;76.17
13767;BME280;47980;48.794;9.176;2023-04-25T07:50:09;97632.59;;;10.83;77.71
13767;BME280;47980;48.794;9.176;2023-04-25T07:52:41;97640.69;;;10.75;79.38
13767;BME280;47980;48.794;9.176;2023-04-25T07:55:12;97643.31;;;10.22;80.62
13767;BME280;47980;48.794;9.176;2023-04-25T07:57:45;97647.19;;;10.37;80.24
13767;BME280;47980;48.794;9.176;2023-04-25T08:00:17;97646.53;;;10.28;81.23
13767;BME280;47980;48.794;9.176;2023-04-25T08:02:49;97643.84;;;10.52;81.13
13767;BME280;47980;48.794;9.176;2023-04-25T08:05:21;97645.41;;;10.53;82.08
13767;BME280;47980;48.794;9.176;2023-04-25T08:07:53;97651.94;;;10.84;82.84
13767;BME280;47980;48.794;9.176;2023-04-25T08:10:24;97653.56;;;10.48;83.03
13767;BME280;47980;48.794;9.176;2023-04-25T08:12:58;97663.16;;;10.65;83.51
13767;BME280;47980;48.794;9.176;2023-04-25T08:15:30;97661.56;;;10.76;82.73
13767;BME280;47980;48.794;9.176;2023-04-25T08:18:02;97667.22;;;11.03;82.27
13767;BME280;47980;48.794;9.176;2023-04-25T08:20:33;97677.44;;;10.89;81.21
13767;BME280;47980;48.794;9.176;2023-04-25T08:23:05;97668.16;;;10.95;82.04
13767;BME280;47980;48.794;9.176;2023-04-25T08:25:37;97673.88;;;10.56;85.23
13767;BME280;47980;48.794;9.176;2023-04-25T08:28:10;97679.13;;;10.81;84.36
13767;BME280;47980;48.794;9.176;2023-04-25T08:30:42;97683.00;;;10.83;84.46
13767;BME280;47980;48.794;9.176;2023-04-25T08:33:13;97686.16;;;10.61;82.75
13767;BME280;47980;48.794;9.176;2023-04-25T08:35:45;97690.34;;;10.62;84.73
13767;BME280;47980;48.794;9.176;2023-04-25T08:38:17;97690.66;;;10.73;86.57
13767;BME280;47980;48.794;9.176;2023-04-25T08:40:50;97702.91;;;10.77;84.32
13767;BME280;47980;48.794;9.176;2023-04-25T08:43:23;97696.84;;;10.77;85.51
13767;BME280;47980;48.794;9.176;2023-04-25T08:45:59;97695.00;;;11.05;85.91
13767;BME280;47980;48.794;9.176;2023-04-25T08:48:33;97706.09;;;11.23;84.58
13767;BME280;47980;48.794;9.176;2023-04-25T08:51:07;97706.00;;;10.67;83.99
13767;BME280;47980;48.794;9.176;2023-04-25T08:53:38;97716.41;;;10.72;83.94
13767;BME280;47980;48.794;9.176;2023-04-25T08:56:15;97718.19;;;10.56;87.38
13767;BME280;47980;48.794;9.176;2023-04-25T08:58:49;97722.94;;;10.63;85.77
13767;BME280;47980;48.794;9.176;2023-04-25T09:01:21;97719.06;;;10.60;85.63
13767;BME280;47980;48.794;9.176;2023-04-25T09:03:53;97729.81;;;10.39;87.90
13767;BME280;47980;48.794;9.176;2023-04-25T09:06:25;97727.94;;;10.40;89.31
13767;BME280;47980;48.794;9.176;2023-04-25T09:09:02;97732.25;;;10.44;89.64
13767;BME280;47980;48.794;9.176;2023-04-25T09:11:36;97730.56;;;10.27;87.34
13767;BME280;47980;48.794;9.176;2023-04-25T09:14:16;97737.50;;;10.20;87.06
13767;BME280;47980;48.794;9.176;2023-04-25T09:16:58;97738.31;;;10.32;86.85
13767;BME280;47980;48.794;9.176;2023-04-25T09:19:32;97744.75;;;10.31;90.47
13767;BME280;47980;48.794;9.176;2023-04-25T09:22:06;97755.09;;;10.24;88.32
13767;BME280;47980;48.794;9.176;2023-04-25T09:24:39;97751.78;;;10.27;87.40
13767;BME280;47980;48.794;9.176;2023-04-25T09:27:16;97759.31;;;10.25;89.80
13767;BME280;47980;48.794;9.176;2023-04-25T09:29:56;97755.81;;;10.00;91.64
13767;BME280;47980;48.794;9.176;2023-04-25T09:32:28;97762.47;;;10.19;89.04
13767;BME280;47980;48.794;9.176;2023-04-25T09:35:00;97767.00;;;10.06;88.81
13767;BME280;47980;48.794;9.176;2023-04-25T09:37:31;97778.91;;;10.00;88.93
13767;BME280;47980;48.794;9.176;2023-04-25T09:40:05;97778.00;;;9.96;89.17
13767;BME280;47980;48.794;9.176;2023-04-25T09:42:41;97776.16;;;10.08;91.45
13767;BME280;47980;48.794;9.176;2023-04-25T09:45:14;97782.34;;;10.12;92.24
13767;BME280;47980;48.794;9.176;2023-04-25T09:47:46;97782.69;;;10.23;92.38
13767;BME280;47980;48.794;9.176;2023-04-25T09:50:17;97795.47;;;10.09;93.22
13767;BME280;47980;48.794;9.176;2023-04-25T09:53:02;97799.09;;;9.59;92.60
13767;BME280;47980;48.794;9.176;2023-04-25T09:55:34;97798.97;;;9.88;94.64
13767;BME280;47980;48.794;9.176;2023-04-25T09:58:06;97801.41;;;9.94;91.97
13767;BME280;47980;48.794;9.176;2023-04-25T10:00:41;97807.53;;;9.73;92.80
13767;BME280;47980;48.794;9.176;2023-04-25T10:03:14;97812.00;;;9.60;89.81
13767;BME280;47980;48.794;9.176;2023-04-25T10:05:47;97810.31;;;9.35;89.69
13767;BME280;47980;48.794;9.176;2023-04-25T10:08:20;97818.88;;;9.11;87.60
13767;BME280;47980;48.794;9.176;2023-04-25T10:10:53;97813.13;;;8.88;92.42
13767;BME280;47980;48.794;9.176;2023-04-25T10:13:25;97819.66;;;8.61;94.48
13767;BME280;47980;48.794;9.176;2023-04-25T10:16:00;97825.34;;;9.01;93.04
13767;BME280;47980;48.794;9.176;2023-04-25T10:18:32;97831.13;;;8.95;92.16
13767;BME280;47980;48.794;9.176;2023-04-25T10:21:04;97838.53;;;9.31;91.16
13767;BME280;47980;48.794;9.176;2023-04-25T10:23:37;97831.16;;;9.36;89.65
13767;BME280;47980;48.794;9.176;2023-04-25T10:26:09;97840.13;;;9.02;90.24
13767;BME280;47980;48.794;9.176;2023-04-25T10:28:55;97849.41;;;9.38;89.89
13767;BME280;47980;48.794;9.176;2023-04-25T10:31:30;97853.66;;;9.30;90.96
13767;BME280;47980;48.794;9.176;2023-04-25T10:34:02;97849.44;;;9.50;92.47
13767;BME280;47980;48.794;9.176;2023-04-25T10:36:34;97849.56;;;9.75;91.33
13767;BME280;47980;48.794;9.176;2023-04-25T10:39:07;97853.94;;;9.92;89.16
13767;BME280;47980;48.794;9.176;2023-04-25T10:41:46;97856.63;;;10.04;87.00
13767;BME280;47980;48.794;9.176;2023-04-25T10:44:19;97863.00;;;9.28;88.65
13767;BME280;47980;48.794;9.176;2023-04-25T10:46:52;97869.97;;;9.32;89.10
13767;BME280;47980;48.794;9.176;2023-04-25T10:49:31;97876.31;;;8.81;89.30
13767;BME280;47980;48.794;9.176;2023-04-25T10:52:17;97873.81;;;9.14;88.80
13767;BME280;47980;48.794;9.176;2023-04-25T10:54:52;97875.53;;;9.39;86.70
13767;BME280;47980;48.794;9.176;2023-04-25T10:57:31;97888.13;;;9.43;86.17
13767;BME280;47980;48.794;9.176;2023-04-25T11:00:14;97886.59;;;9.42;88.87
13767;BME280;47980;48.794;9.176;2023-04-25T11:02:51;97890.97;;;9.79;84.96
13767;BME280;47980;48.794;9.176;2023-04-25T11:05:30;97893.31;;;9.81;82.49
13767;BME280;47980;48.794;9.176;2023-04-25T11:08:03;97898.34;;;9.74;85.53
13767;BME280;47980;48.794;9.176;2023-04-25T11:10:40;97896.00;;;9.93;85.21
13767;BME280;47980;48.794;9.176;2023-04-25T11:13:12;97907.34;;;10.35;83.82
13767;BME280;47980;48.794;9.176;2023-04-25T11:15:44;97900.41;;;9.89;83.78
13767;BME280;47980;48.794;9.176;2023-04-25T11:18:17;97897.38;;;9.99;87.43
13767;BME280;47980;48.794;9.176;2023-04-25T11:20:49;97904.47;;;10.41;86.94
13767;BME280;47980;48.794;9.176;2023-04-25T11:23:21;97900.88;;;10.57;85.32
13767;BME280;47980;48.794;9.176;2023-04-25T11:25:52;97908.31;;;10.64;78.23
13767;BME280;47980;48.794;9.176;2023-04-25T11:28:24;97903.94;;;10.14;81.73
13767;BME280;47980;48.794;9.176;2023-04-25T11:30:56;97902.47;;;10.04;79.41
13767;BME280;47980;48.794;9.176;2023-04-25T11:33:29;97910.38;;;9.92;77.68
13767;BME280;47980;48.794;9.176;2023-04-25T11:36:00;97906.34;;;9.86;79.45
13767;BME280;47980;48.794;9.176;2023-04-25T11:38:32;97901.94;;;10.32;77.54
13767;BME280;47980;48.794;9.176;2023-04-25T11:41:04;97906.34;;;10.28;77.77
13767;BME280;47980;48.794;9.176;2023-04-25T11:43:35;97909.59;;;9.92;81.87
13767;BME280;47980;48.794;9.176;2023-04-25T11:46:07;97912.63;;;10.69;81.94
13767;BME280;47980;48.794;9.176;2023-04-25T11:48:41;97910.78;;;10.36;82.58
13767;BME280;47980;48.794;9.176;2023-04-25T11:51:13;97912.69;;;10.48;81.68
13767;BME280;47980;48.794;9.176;2023-04-25T11:53:45;97917.03;;;10.77;82.02
13767;BME280;47980;48.794;9.176;2023-04-25T11:56:17;97915.44;;;10.51;84.33
13767;BME280;47980;48.794;9.176;2023-04-25T11:58:56;97916.16;;;10.73;80.92
13767;BME280;47980;48.794;9.176;2023-04-25T12:01:28;97924.47;;;10.38;78.03
13767;BME280;47980;48.794;9.176;2023-04-25T12:04:12;97919.94;;;11.21;78.53
13767;BME280;47980;48.794;9.176;2023-04-25T12:06:45;97928.91;;;11.16;78.13
13767;BME280;47980;48.794;9.176;2023-04-25T12:09:19;97925.69;;;11.23;75.59
13767;BME280;47980;48.794;9.176;2023-04-25T12:11:53;97931.84;;;11.64;77.70
13767;BME280;47980;48.794;9.176;2023-04-25T12:14:27;97935.66;;;11.01;80.10
13767;BME280;47980;48.794;9.176;2023-04-25T12:17:00;97935.84;;;10.96;78.00
13767;BME280;47980;48.794;9.176;2023-04-25T12:19:34;97933.00;;;11.26;79.64
13767;BME280;47980;48.794;9.176;2023-04-25T12:22:19;97933.19;;;10.84;82.77
13767;BME280;47980;48.794;9.176;2023-04-25T12:24:50;97929.75;;;10.38;81.73
13767;BME280;47980;48.794;9.176;2023-04-25T12:27:25;97937.84;;;10.42;80.98
13767;BME280;47980;48.794;9.176;2023-04-25T12:29:58;97940.53;;;10.00;84.12
13767;BME280;47980;48.794;9.176;2023-04-25T12:32:30;97940.91;;;10.10;85.98
13767;BME280;47980;48.794;9.176;2023-04-25T12:35:03;97940.13;;;10.31;86.78
13767;BME280;47980;48.794;9.176;2023-04-25T12:37:35;97947.50;;;10.46;85.13
13767;BME280;47980;48.794;9.176;2023-04-25T12:40:07;97936.06;;;10.79;80.12
13767;BME280;47980;48.794;9.176;2023-04-25T12:42:38;97939.94;;;11.43;77.71
13767;BME280;47980;48.794;9.176;2023-04-25T12:45:10;97940.66;;;11.92;78.79
13767;BME280;47980;48.794;9.176;2023-04-25T12:47:41;97942.66;;;12.23;78.23
13767;BME280;47980;48.794;9.176;2023-04-25T12:50:15;97943.59;;;12.59;74.57
13767;BME280;47980;48.794;9.176;2023-04-25T12:52:46;97950.13;;;12.46;71.50
13767;BME280;47980;48.794;9.176;2023-04-25T12:55:18;97946.44;;;12.66;72.33
13767;BME280;47980;48.794;9.176;2023-04-25T12:57:49;97946.34;;;12.63;74.08
13767;BME280;47980;48.794;9.176;2023-04-25T13:00:21;97945.16;;;12.76;72.63
13767;BME280;47980;48.794;9.176;2023-04-25T13:02:53;97943.03;;;12.97;73.12
13767;BME280;47980;48.794;9.176;2023-04-25T13:05:26;97948.44;;;13.17;71.89
13767;BME280;47980;48.794;9.176;2023-04-25T13:07:57;97949.97;;;13.18;71.62
13767;BME280;47980;48.794;9.176;2023-04-25T13:10:29;97947.25;;;12.39;69.72
13767;BME280;47980;48.794;9.176;2023-04-25T13:13:01;97946.97;;;12.72;68.87
13767;BME280;47980;48.794;9.176;2023-04-25T13:15:33;97946.59;;;12.14;73.49
13767;BME280;47980;48.794;9.176;2023-04-25T13:18:04;97941.53;;;11.96;77.22
13767;BME280;47980;48.794;9.176;2023-04-25T13:20:38;97949.56;;;12.12;74.80
13767;BME280;47980;48.794;9.176;2023-04-25T13:23:09;97952.81;;;12.77;71.00
13767;BME280;47980;48.794;9.176;2023-04-25T13:25:41;97949.31;;;13.37;69.46
13767;BME280;47980;48.794;9.176;2023-04-25T13:28:12;97946.63;;;12.73;71.58
13767;BME280;47980;48.794;9.176;2023-04-25T13:30:45;97946.91;;;13.00;71.42
13767;BME280;47980;48.794;9.176;2023-04-25T13:33:18;97944.41;;;12.91;68.38
13767;BME280;47980;48.794;9.176;2023-04-25T13:35:52;97950.69;;;13.15;69.38